VST4017 LROP-KEWR
Flight info
| Callsign | VST4017 |
|---|---|
| Flight time | N/A |
| Altitude | 36000 |
| Route | POLUN Y88 ANASA DCT PEROT DCT BEDOX DCT ERKIR DCT ETAGO DCT LIRSU DCT REMBA M624 BUB L608 DENUT L610 HEMEL T420 BUZAD L10 DTY DCT SAPCO UN57 TNT UQ4 WAL L10 PENIL UL28 LELDO M145 BAGSO DCT MALOT/M085F360 NATD RIKAL/N0500F360 N576B ANATI DCT IMORI DCT HANAA FLOSI4 |
| Aircraft | A35K/H-SDE2E3GHIJ3J4J5LM1ORWXY/LB1D1 |
Departure
| Time | N/A |
|---|---|
| Airport | Bucharest Henri Coandă International Airport (LROP) |
Arrival
| Time | 2026-05-04 18:42 |
|---|---|
| Airport | Newark Liberty International Airport (KEWR) |
| Time | Latitude | Longitude | Altitude | Speed | Heading |
|---|---|---|---|---|---|
| 2026-05-04 18:06 | 43.75741 | -73.31288 | 37792 ft | 484 kts | 206° |
| 2026-05-04 18:07 | 43.69510 | -73.34657 | 37801 ft | 483 kts | 206° |
| 2026-05-04 18:07 | 43.63246 | -73.38036 | 37804 ft | 483 kts | 206° |
| 2026-05-04 18:08 | 43.56982 | -73.41406 | 37807 ft | 483 kts | 206° |
| 2026-05-04 18:08 | 43.50715 | -73.44772 | 37806 ft | 484 kts | 206° |
| 2026-05-04 18:09 | 43.38239 | -73.51448 | 36266 ft | 482 kts | 206° |
| 2026-05-04 18:10 | 43.35113 | -73.53117 | 35521 ft | 482 kts | 207° |
| 2026-05-04 18:10 | 43.31978 | -73.54790 | 34740 ft | 484 kts | 207° |
| 2026-05-04 18:10 | 43.28829 | -73.56468 | 33950 ft | 487 kts | 208° |
| 2026-05-04 18:10 | 43.25666 | -73.58152 | 33054 ft | 489 kts | 208° |
| 2026-05-04 18:11 | 43.22485 | -73.59843 | 32183 ft | 490 kts | 207° |
| 2026-05-04 18:11 | 43.19317 | -73.61523 | 31484 ft | 488 kts | 207° |
| 2026-05-04 18:11 | 43.16107 | -73.63027 | 30891 ft | 488 kts | 203° |
| 2026-05-04 18:11 | 43.12865 | -73.64345 | 30312 ft | 484 kts | 202° |
| 2026-05-04 18:12 | 43.09651 | -73.65653 | 29736 ft | 480 kts | 203° |
| 2026-05-04 18:12 | 43.06471 | -73.66967 | 29112 ft | 475 kts | 203° |
| 2026-05-04 18:12 | 43.03325 | -73.68282 | 28510 ft | 471 kts | 203° |
| 2026-05-04 18:12 | 43.00210 | -73.69590 | 27935 ft | 466 kts | 203° |
| 2026-05-04 18:13 | 42.97124 | -73.70889 | 27363 ft | 462 kts | 203° |
| 2026-05-04 18:13 | 42.94062 | -73.72179 | 26781 ft | 458 kts | 203° |
| 2026-05-04 18:13 | 42.88023 | -73.74722 | 25665 ft | 451 kts | 202° |
| 2026-05-04 18:14 | 42.86039 | -73.75557 | 25288 ft | 449 kts | 202° |
| 2026-05-04 18:14 | 42.83071 | -73.76806 | 24763 ft | 445 kts | 202° |
| 2026-05-04 18:14 | 42.80129 | -73.78042 | 24336 ft | 439 kts | 202° |
| 2026-05-04 18:15 | 42.74291 | -73.80496 | 23849 ft | 439 kts | 202° |
| 2026-05-04 18:15 | 42.68508 | -73.83079 | 23366 ft | 436 kts | 204° |
| 2026-05-04 18:15 | 42.65637 | -73.84380 | 23090 ft | 434 kts | 203° |
| 2026-05-04 18:16 | 42.62770 | -73.85673 | 22808 ft | 432 kts | 203° |
| 2026-05-04 18:16 | 42.59934 | -73.86947 | 22529 ft | 430 kts | 203° |
| 2026-05-04 18:16 | 42.57213 | -73.88167 | 22270 ft | 428 kts | 203° |
| 2026-05-04 18:17 | 42.51641 | -73.90659 | 21735 ft | 423 kts | 203° |
| 2026-05-04 18:17 | 42.48848 | -73.91906 | 21438 ft | 421 kts | 203° |
| 2026-05-04 18:17 | 42.43441 | -73.94317 | 20957 ft | 417 kts | 203° |
| 2026-05-04 18:18 | 42.40694 | -73.95540 | 20690 ft | 415 kts | 203° |
| 2026-05-04 18:18 | 42.37961 | -73.96756 | 20445 ft | 413 kts | 203° |
| 2026-05-04 18:18 | 42.35398 | -73.97895 | 20215 ft | 411 kts | 202° |
| 2026-05-04 18:18 | 42.32911 | -73.98999 | 19979 ft | 409 kts | 202° |
| 2026-05-04 18:19 | 42.27972 | -74.01189 | 19511 ft | 406 kts | 202° |
| 2026-05-04 18:19 | 42.25459 | -74.02302 | 19280 ft | 404 kts | 202° |
| 2026-05-04 18:19 | 42.22790 | -74.03484 | 19040 ft | 402 kts | 202° |
| 2026-05-04 18:20 | 42.20139 | -74.04658 | 18798 ft | 400 kts | 202° |
| 2026-05-04 18:20 | 42.17496 | -74.05824 | 18552 ft | 399 kts | 202° |
| 2026-05-04 18:20 | 42.14862 | -74.06985 | 18333 ft | 397 kts | 202° |
| 2026-05-04 18:20 | 42.12243 | -74.08141 | 18097 ft | 395 kts | 202° |
| 2026-05-04 18:21 | 42.09639 | -74.09288 | 17807 ft | 393 kts | 202° |
| 2026-05-04 18:21 | 42.07064 | -74.10421 | 17512 ft | 386 kts | 202° |
| 2026-05-04 18:21 | 42.04534 | -74.11534 | 17108 ft | 379 kts | 202° |
| 2026-05-04 18:21 | 42.02043 | -74.12627 | 16626 ft | 375 kts | 202° |
| 2026-05-04 18:22 | 41.99570 | -74.13711 | 16138 ft | 372 kts | 202° |
| 2026-05-04 18:22 | 41.97116 | -74.14786 | 15662 ft | 370 kts | 202° |
| 2026-05-04 18:22 | 41.94680 | -74.15853 | 15186 ft | 367 kts | 202° |
| 2026-05-04 18:22 | 41.92290 | -74.16899 | 14715 ft | 365 kts | 202° |
| 2026-05-04 18:23 | 41.89880 | -74.17953 | 14236 ft | 363 kts | 202° |
| 2026-05-04 18:23 | 41.87485 | -74.18999 | 13767 ft | 361 kts | 202° |
| 2026-05-04 18:23 | 41.85101 | -74.20040 | 13251 ft | 359 kts | 203° |
| 2026-05-04 18:23 | 41.82741 | -74.21073 | 12774 ft | 355 kts | 202° |
| 2026-05-04 18:24 | 41.80405 | -74.22091 | 12312 ft | 351 kts | 202° |
| 2026-05-04 18:24 | 41.78093 | -74.23097 | 11823 ft | 348 kts | 202° |
| 2026-05-04 18:24 | 41.75811 | -74.24090 | 11503 ft | 340 kts | 202° |
| 2026-05-04 18:24 | 41.73616 | -74.25041 | 11378 ft | 324 kts | 203° |
| 2026-05-04 18:25 | 41.71520 | -74.25948 | 11268 ft | 309 kts | 203° |
| 2026-05-04 18:25 | 41.69522 | -74.26814 | 11153 ft | 295 kts | 203° |
| 2026-05-04 18:25 | 41.67615 | -74.27641 | 11026 ft | 282 kts | 204° |
| 2026-05-04 18:25 | 41.65787 | -74.28437 | 10912 ft | 272 kts | 204° |
| 2026-05-04 18:26 | 41.63995 | -74.29221 | 10597 ft | 270 kts | 204° |
| 2026-05-04 18:26 | 41.62211 | -74.29997 | 10300 ft | 268 kts | 203° |
| 2026-05-04 18:26 | 41.60445 | -74.30763 | 10008 ft | 266 kts | 203° |
| 2026-05-04 18:26 | 41.58682 | -74.31529 | 9721 ft | 269 kts | 203° |
| 2026-05-04 18:27 | 41.56863 | -74.32323 | 9478 ft | 278 kts | 203° |
| 2026-05-04 18:27 | 41.55023 | -74.33120 | 9265 ft | 279 kts | 203° |
| 2026-05-04 18:27 | 41.53181 | -74.33920 | 8880 ft | 277 kts | 203° |
| 2026-05-04 18:27 | 41.51355 | -74.34709 | 8521 ft | 275 kts | 203° |
| 2026-05-04 18:28 | 41.49543 | -74.35488 | 8215 ft | 273 kts | 203° |
| 2026-05-04 18:28 | 41.47739 | -74.36262 | 7932 ft | 271 kts | 202° |
| 2026-05-04 18:28 | 41.45954 | -74.37031 | 7639 ft | 268 kts | 202° |
| 2026-05-04 18:28 | 41.44183 | -74.37791 | 7358 ft | 266 kts | 202° |
| 2026-05-04 18:29 | 41.42397 | -74.38431 | 7070 ft | 268 kts | 193° |
| 2026-05-04 18:29 | 41.40518 | -74.38289 | 6981 ft | 277 kts | 171° |
| 2026-05-04 18:29 | 41.38704 | -74.37476 | 6960 ft | 280 kts | 164° |
| 2026-05-04 18:29 | 41.36888 | -74.36537 | 6964 ft | 280 kts | 164° |
| 2026-05-04 18:30 | 41.33260 | -74.34674 | 6979 ft | 280 kts | 165° |
| 2026-05-04 18:30 | 41.31436 | -74.33752 | 6972 ft | 281 kts | 164° |
| 2026-05-04 18:30 | 41.29610 | -74.32830 | 6969 ft | 281 kts | 165° |
| 2026-05-04 18:31 | 41.27780 | -74.31907 | 6978 ft | 281 kts | 165° |
| 2026-05-04 18:31 | 41.25950 | -74.30986 | 6977 ft | 281 kts | 164° |
| 2026-05-04 18:31 | 41.24124 | -74.30066 | 6973 ft | 281 kts | 165° |
| 2026-05-04 18:31 | 41.22307 | -74.29153 | 6778 ft | 277 kts | 164° |
| 2026-05-04 18:32 | 41.20504 | -74.28247 | 6367 ft | 277 kts | 165° |
| 2026-05-04 18:32 | 41.18708 | -74.27347 | 5991 ft | 274 kts | 165° |
| 2026-05-04 18:32 | 41.16933 | -74.26457 | 5602 ft | 272 kts | 165° |
| 2026-05-04 18:32 | 41.15165 | -74.25574 | 5199 ft | 270 kts | 165° |
| 2026-05-04 18:33 | 41.13418 | -74.24703 | 4873 ft | 266 kts | 164° |
| 2026-05-04 18:33 | 41.11695 | -74.23843 | 4489 ft | 264 kts | 164° |
| 2026-05-04 18:33 | 41.09977 | -74.22987 | 4051 ft | 264 kts | 164° |
| 2026-05-04 18:33 | 41.08265 | -74.22132 | 3680 ft | 261 kts | 164° |
| 2026-05-04 18:34 | 41.06572 | -74.21287 | 3241 ft | 258 kts | 165° |
| 2026-05-04 18:34 | 41.04894 | -74.20447 | 3030 ft | 258 kts | 164° |
| 2026-05-04 18:34 | 41.03214 | -74.19613 | 2977 ft | 258 kts | 164° |
| 2026-05-04 18:34 | 41.01528 | -74.18776 | 2991 ft | 260 kts | 164° |
| 2026-05-04 18:35 | 40.99865 | -74.17948 | 2991 ft | 258 kts | 164° |
| 2026-05-04 18:35 | 40.98167 | -74.17104 | 2995 ft | 258 kts | 165° |
| 2026-05-04 18:35 | 40.96511 | -74.16274 | 2991 ft | 258 kts | 164° |
| 2026-05-04 18:35 | 40.94824 | -74.15434 | 2994 ft | 260 kts | 164° |
| 2026-05-04 18:36 | 40.93183 | -74.14406 | 2990 ft | 262 kts | 156° |
| 2026-05-04 18:36 | 40.91613 | -74.13242 | 2990 ft | 250 kts | 155° |
| 2026-05-04 18:36 | 40.90159 | -74.12138 | 3003 ft | 233 kts | 156° |
| 2026-05-04 18:36 | 40.88798 | -74.11106 | 2995 ft | 220 kts | 156° |
| 2026-05-04 18:37 | 40.87472 | -74.10115 | 3005 ft | 218 kts | 156° |
| 2026-05-04 18:37 | 40.86143 | -74.09125 | 2996 ft | 219 kts | 156° |
| 2026-05-04 18:37 | 40.84805 | -74.08155 | 2990 ft | 218 kts | 160° |
| 2026-05-04 18:37 | 40.83429 | -74.07737 | 2987 ft | 191 kts | 188° |
| 2026-05-04 18:38 | 40.82244 | -74.08156 | 2897 ft | 167 kts | 207° |
| 2026-05-04 18:38 | 40.81197 | -74.08807 | 2460 ft | 169 kts | 209° |
| 2026-05-04 18:38 | 40.80125 | -74.09517 | 2099 ft | 173 kts | 210° |
| 2026-05-04 18:38 | 40.79074 | -74.10193 | 1997 ft | 162 kts | 210° |
| 2026-05-04 18:39 | 40.78105 | -74.10828 | 1903 ft | 151 kts | 211° |
| 2026-05-04 18:39 | 40.77171 | -74.11404 | 1720 ft | 143 kts | 208° |
| 2026-05-04 18:39 | 40.76297 | -74.11899 | 1516 ft | 131 kts | 208° |
| 2026-05-04 18:39 | 40.75480 | -74.12387 | 1359 ft | 128 kts | 212° |
| 2026-05-04 18:40 | 40.74692 | -74.12942 | 1162 ft | 130 kts | 214° |
| 2026-05-04 18:40 | 40.73894 | -74.13510 | 995 ft | 131 kts | 210° |
| 2026-05-04 18:40 | 40.73065 | -74.14031 | 871 ft | 132 kts | 209° |
| 2026-05-04 18:40 | 40.72231 | -74.14562 | 673 ft | 134 kts | 210° |
| 2026-05-04 18:41 | 40.71405 | -74.15095 | 418 ft | 130 kts | 207° |
| 2026-05-04 18:41 | 40.70603 | -74.15598 | 223 ft | 126 kts | 212° |
| 2026-05-04 18:41 | 40.69842 | -74.16096 | 64 ft | 124 kts | 211° |
| 2026-05-04 18:41 | 40.69110 | -74.16569 | 30 ft | 102 kts | 206° |
| 2026-05-04 18:42 | 40.68612 | -74.16885 | 28 ft | 38 kts | 208° |
| 2026-05-04 18:42 | 40.68469 | -74.17121 | 29 ft | 32 kts | 236° |
| 2026-05-04 18:42 | 40.68471 | -74.17324 | 30 ft | 22 kts | 295° |
| 2026-05-04 18:42 | 40.68538 | -74.17446 | 29 ft | 10 kts | 349° |
| 2026-05-04 18:43 | 40.68612 | -74.17421 | 29 ft | 13 kts | 23° |
| 2026-05-04 18:43 | 40.68703 | -74.17364 | 29 ft | 16 kts | 26° |
| 2026-05-04 18:43 | 40.68819 | -74.17291 | 28 ft | 21 kts | 26° |
| 2026-05-04 18:43 | 40.68959 | -74.17202 | 28 ft | 24 kts | 26° |
| 2026-05-04 18:44 | 40.69119 | -74.17100 | 27 ft | 21 kts | 26° |
| 2026-05-04 18:44 | 40.69186 | -74.17059 | 28 ft | 9 kts | 18° |
| 2026-05-04 18:44 | 40.69220 | -74.17100 | 28 ft | 6 kts | 304° |
| 2026-05-04 18:44 | 40.69246 | -74.17164 | 28 ft | 9 kts | 295° |
| 2026-05-04 18:45 | 40.69244 | -74.17219 | 28 ft | 5 kts | 235° |
| 2026-05-04 18:45 | 40.69208 | -74.17248 | 28 ft | 7 kts | 208° |
| 2026-05-04 18:45 | 40.69153 | -74.17279 | 28 ft | 10 kts | 199° |
| 2026-05-04 18:45 | 40.69126 | -74.17325 | 28 ft | 3 kts | 275° |
| 2026-05-04 18:46 | 40.69135 | -74.17347 | 28 ft | 2 kts | 298° |
| 2026-05-04 18:46 | 40.69142 | -74.17359 | 27 ft | 0 kts | 309° |